Barnet, United Kingdom
Current Conditions -  °F | °C
As of 7:50 PM on Wednesday 26 Nov 2014 (Local Time) from EGWU Reporting Station
Overcast Overcast  
Wind Chill: 48°   Ceiling: 300
Heat Index: 48°   Visibility: 2.3mi
Dew Point: 48°   Wind: 3mph
Humidity: 100%   Direction: 30°NNE
Pressure: 29.77"   Gusts: NA
Location:  51.65°N, 0.2°W
Report Text: EGWU 261950Z AUTO 03003KT 3800 // OVC003/// 09/09 Q1008
Loading
Personal Weather Stations






























Interactive Weather Map New forecast layout! Learn more

10-Day Weather Forecast

Advertisements
Track Severe Weather on mobile